»·PEaware :: LOF3130 KSBA-KLAX

LOF3130 :: KSBA-KLAX

FLIGHT INFORMATION

Flight Status: Arrived
Operator:
Trans States Airlines
More flights by this operator :: More flights under this callsign
Pilot: Skye D. (10623)
Aircraft: BRITISH AERO BAe-3200 JETSTREAM SUPER 31
(JS32)
More flights by this aircraft type
Origin: KSBA Santa Barbara Mun
United States
Destination: KLAX Los Angeles Intl
United States
More flights between these airports :: More routes between these airports
Route: +KWANG VTU V299 SADDE V107 SMO
File this flight plan on PilotEdge
Remarks: SBAN10
Altitude:
(Current/Filed)
11,000ft
Speed:
(Current/Filed)
220kts
Departed: 12-Feb-18 03:30 PM
Arrived: 12-Feb-18 03:58 PM
Distance/Time
Traveled:
77nm/0:28
Distance/Time
To Go:
Arrived

Flight Plot

Page will automatically refresh every two minutes.


Map Options




Map Legend


Flown Route
Filed Route
Departure Airport
Arrival Airport
Navaid (VOR, NDB)
Fix

Horizontal Profiles

Position Reports

Time Latitude Longitude Heading Altitude Ground
Speed
12-Feb-18 15:15 34.425986 -119.837537 91 16ft 0kts
12-Feb-18 15:16 34.425986 -119.837537 91 16ft 0kts
12-Feb-18 15:17 34.425986 -119.837537 91 16ft 0kts
12-Feb-18 15:18 34.425986 -119.837537 91 16ft 0kts
12-Feb-18 15:19 34.425986 -119.837537 91 16ft 0kts
12-Feb-18 15:20 34.425986 -119.837537 91 16ft 0kts
12-Feb-18 15:21 34.425986 -119.837537 91 16ft 0kts
12-Feb-18 15:22 34.425986 -119.837537 91 16ft 0kts
12-Feb-18 15:23 34.425986 -119.837537 91 16ft 0kts
12-Feb-18 15:24 34.425986 -119.837537 91 16ft 0kts
12-Feb-18 15:25 34.425986 -119.837537 91 16ft 0kts
12-Feb-18 15:26 34.425986 -119.837537 91 16ft 0kts
12-Feb-18 15:27 34.425986 -119.837537 91 16ft 0kts
12-Feb-18 15:28 34.425986 -119.837537 91 16ft 0kts
12-Feb-18 15:29 34.425986 -119.837537 91 16ft 0kts
12-Feb-18 15:30 34.425987 -119.837511 86 16ft 0kts
12-Feb-18 15:31 34.426182 -119.837527 259 16ft 0kts
12-Feb-18 15:32 34.426171 -119.837595 259 16ft 0kts
12-Feb-18 15:33 34.426171 -119.837595 259 16ft 0kts
12-Feb-18 15:34 34.426772 -119.835427 85 16ft 13kts
12-Feb-18 15:35 34.427053 -119.834594 344 16ft 0kts
12-Feb-18 15:36 34.427106 -119.834611 339 16ft 2kts
12-Feb-18 15:37 34.427885 -119.847920 269 443ft 105kts
12-Feb-18 15:38 34.427988 -119.891533 271 2652ft 134kts
12-Feb-18 15:39 34.426781 -119.949397 267 2959ft 202kts
12-Feb-18 15:40 34.386711 -119.982337 154 3457ft 263kts
12-Feb-18 15:41 34.323867 -119.936216 156 4920ft 266kts
12-Feb-18 15:42 34.258254 -119.899985 157 6732ft 257kts
12-Feb-18 15:43 34.221637 -119.831265 98 8552ft 267kts
12-Feb-18 15:44 34.209418 -119.741487 97 9921ft 274kts
12-Feb-18 15:45 34.197189 -119.650228 98 10976ft 282kts
12-Feb-18 15:46 34.183933 -119.552078 98 11007ft 306kts
12-Feb-18 15:47 34.169955 -119.449118 98 11034ft 316kts
12-Feb-18 15:48 34.155755 -119.345181 99 11031ft 311kts
12-Feb-18 15:49 34.142021 -119.243482 99 11025ft 307kts
12-Feb-18 15:50 34.128075 -119.142578 100 11035ft 306kts
12-Feb-18 15:51 34.112631 -119.041274 108 11036ft 304kts
12-Feb-18 15:52 34.086923 -118.943745 110 11037ft 304kts
12-Feb-18 15:53 34.060928 -118.846491 110 10982ft 306kts
12-Feb-18 15:54 34.037478 -118.749686 96 9952ft 298kts
12-Feb-18 15:55 34.028616 -118.652909 97 8205ft 286kts
12-Feb-18 15:56 34.020080 -118.561517 98 6993ft 258kts
12-Feb-18 15:57 34.012697 -118.475510 96 6990ft 256kts
12-Feb-18 15:58 34.007537 -118.401172 96 6793ft 213kts
12-Feb-18 15:59 34.011886 -118.336069 77 5161ft 206kts
12-Feb-18 16:00 34.002668 -118.280950 182 3273ft 178kts
12-Feb-18 16:01 33.960581 -118.291745 195 1915ft 143kts
12-Feb-18 16:02 33.942790 -118.324136 269 1308ft 122kts
12-Feb-18 16:03 33.939950 -118.357678 261 605ft 98kts
12-Feb-18 16:04 33.936726 -118.389345 261 133ft 88kts
12-Feb-18 16:05 33.936337 -118.398870 288 128ft 10kts
12-Feb-18 16:06 33.936769 -118.403830 304 128ft 24kts
12-Feb-18 16:07 33.938765 -118.400019 81 128ft 22kts
12-Feb-18 16:08 33.939877 -118.395192 9 128ft 9kts
12-Feb-18 16:09 33.941451 -118.393218 358 128ft 3kts
12-Feb-18 16:10 33.941521 -118.393661 270 128ft 0kts

Navigation Log

Ident Type
Flight plan parsing failed, navigation log unavailable